Hauptseite
METAR-TAF:

METAR-TAF

Flughäfen :

Flughafen Lübeck

Lübeck, Deutschland

Breite: 53-49N, Länge: 010-42E, Höhe: 14 m

Beobachtung

Neuester Wetterbericht von vor 18 Minuten, um 01:50 UTC
Wind 7 kt aus Süd/Südost, variierte zwischen Südost und Süd/Südwest
Temperatur -2°C
Luftfeuchtigkeit 80%
Luftdruck 1038 hPa
Sichtweite 10 km oder mehr

METAR: EDHL 050150Z AUTO 16007KT 130V200 9999 // BKN100/// M02/M05 Q1038

Zeit: 03:08 (02:08 UTC)

Prognose

Neuester Wetterbericht von vor 9 Stunden und 8 Minuten, um 17:00 UTC
Gültige Prognose vom 04 um 18 UTC bis 04 um 21 UTC
Wind 4 kt aus Ost
Sichtweite 10 km oder mehr
keine Wolken unter 1500 m und keine Kumulonimbus oder Gewitterwolken

TAF: EDHL 041700Z 0418/0421 08004KT CAVOK

Wetterbeobachtungen und Prognosen von mehr als 4000 Flughäfen (METAR und TAF Bericht).

Die verfügbaren Stationen werden durch gelbe und rote Markierungen auf der Karte dargestellt.

Führen Sie die Maus auf sie, um den Namen der Station zu sehen.

Darauf klicken, um die Beobachtung von Wetterbeobachtungen und Prognosen zu sehen.

Um die Karte zu ändern : klicken Sie auf den grünen Tasten mit einem schwarzen Kreuz Zum Vergrößern, auf den grünen Button mit einem Gedankenstrich zu verkleinern, oder auf die grünen Pfeile für benachbarte Karten.


METAR-TAF: